createdAt,value
2023-03-14T00:00:10.862Z,98311.66
2023-03-14T00:02:37.756Z,98318.38
2023-03-14T00:05:07.486Z,98315.75
2023-03-14T00:07:36.155Z,98310.66
2023-03-14T00:10:05.304Z,98326.84
2023-03-14T00:12:32.589Z,98320.06
2023-03-14T00:15:00.922Z,98302.75
2023-03-14T00:17:28.113Z,98299.91
2023-03-14T00:19:58.193Z,98295.47
2023-03-14T00:22:24.683Z,98274.84
2023-03-14T00:24:51.526Z,98261.09
2023-03-14T00:27:17.954Z,98261.97
2023-03-14T00:29:44.872Z,98253.00
2023-03-14T00:32:11.382Z,98254.19
2023-03-14T00:34:37.807Z,98252.38
2023-03-14T00:37:04.210Z,98272.97
2023-03-14T00:39:30.593Z,98290.25
2023-03-14T00:41:57.008Z,98306.81
2023-03-14T00:44:23.455Z,98310.97
2023-03-14T00:46:50.583Z,98313.69
2023-03-14T00:49:17.139Z,98318.88
2023-03-14T00:51:43.506Z,98318.78
2023-03-14T00:54:09.908Z,98314.63
2023-03-14T00:56:36.320Z,98291.50
2023-03-14T00:59:02.728Z,98283.47
2023-03-14T01:01:29.161Z,98277.19
2023-03-14T01:03:56.547Z,98261.50
2023-03-14T01:06:27.870Z,98271.22
2023-03-14T01:08:55.260Z,98260.00
2023-03-14T01:11:24.599Z,98272.81
2023-03-14T01:13:51.132Z,98269.81
2023-03-14T01:16:19.082Z,98285.66
2023-03-14T01:18:46.928Z,98306.59
2023-03-14T01:21:16.179Z,98359.03
2023-03-14T01:23:43.141Z,98357.97
2023-03-14T01:26:11.489Z,98364.00
2023-03-14T01:28:38.216Z,98368.78
2023-03-14T01:31:06.589Z,98345.19
2023-03-14T01:33:33.058Z,98358.06
2023-03-14T01:35:59.631Z,98349.00
2023-03-14T01:38:26.124Z,98352.16
2023-03-14T01:40:52.501Z,98351.31
2023-03-14T01:43:20.427Z,98344.25
2023-03-14T01:45:59.053Z,98348.88
2023-03-14T01:48:27.218Z,98343.56
2023-03-14T01:50:53.708Z,98332.72
2023-03-14T01:53:22.227Z,98327.63
2023-03-14T01:55:49.634Z,98313.81
2023-03-14T01:58:17.035Z,98323.44
2023-03-14T02:00:43.757Z,98310.38
2023-03-14T02:03:17.890Z,98307.72
2023-03-14T02:05:45.043Z,98311.50
2023-03-14T02:08:15.222Z,98307.22
2023-03-14T02:10:51.456Z,98311.69
2023-03-14T02:13:19.649Z,98307.53
2023-03-14T02:15:46.194Z,98293.44
2023-03-14T02:18:13.635Z,98299.69
2023-03-14T02:21:01.097Z,98294.31
2023-03-14T02:23:56.633Z,98303.94
2023-03-14T02:26:42.842Z,98305.38
2023-03-14T02:29:09.291Z,98317.75
2023-03-14T02:31:36.097Z,98315.22
2023-03-14T02:34:03.787Z,98324.97
2023-03-14T02:36:30.656Z,98303.69
2023-03-14T02:39:15.423Z,98302.94
2023-03-14T02:41:43.393Z,98319.22
2023-03-14T02:44:09.782Z,98293.88
2023-03-14T02:46:36.204Z,98295.00
2023-03-14T02:49:08.624Z,98304.44
2023-03-14T02:51:36.353Z,98308.16
2023-03-14T02:54:02.748Z,98307.94
2023-03-14T02:56:29.129Z,98301.06
2023-03-14T02:58:55.548Z,98298.69
2023-03-14T03:01:22.030Z,98297.19
2023-03-14T03:03:48.460Z,98298.25
2023-03-14T03:06:14.839Z,98297.56
2023-03-14T03:08:41.304Z,98283.63
2023-03-14T03:11:08.107Z,98297.59
2023-03-14T03:13:34.887Z,98292.50
2023-03-14T03:16:01.404Z,98294.06
2023-03-14T03:18:27.824Z,98276.91
2023-03-14T03:20:54.257Z,98280.44
2023-03-14T03:23:20.682Z,98269.25
2023-03-14T03:25:51.300Z,98268.50
2023-03-14T03:28:18.262Z,98266.66
2023-03-14T03:30:45.082Z,98264.16
2023-03-14T03:33:11.662Z,98264.97
2023-03-14T03:35:49.342Z,98257.16
2023-03-14T03:38:16.454Z,98249.06
2023-03-14T03:40:43.298Z,98260.56
2023-03-14T03:43:09.945Z,98245.91
2023-03-14T03:45:36.354Z,98257.75
2023-03-14T03:48:02.762Z,98262.31
2023-03-14T03:50:29.171Z,98259.34
2023-03-14T03:52:55.562Z,98277.31
2023-03-14T03:55:21.984Z,98255.19
2023-03-14T03:57:48.356Z,98250.06
2023-03-14T04:00:14.854Z,98253.50
2023-03-14T04:02:41.336Z,98257.75
2023-03-14T04:05:08.394Z,98252.19
2023-03-14T04:07:34.882Z,98257.38
2023-03-14T04:10:01.276Z,98255.28
2023-03-14T04:12:27.640Z,98247.88
2023-03-14T04:14:54.032Z,98255.38
2023-03-14T04:17:21.687Z,98249.63
2023-03-14T04:19:51.701Z,98257.63
2023-03-14T04:22:18.086Z,98253.75
2023-03-14T04:24:44.469Z,98252.00
2023-03-14T04:27:11.005Z,98256.22
2023-03-14T04:29:37.395Z,98254.16
2023-03-14T04:32:03.776Z,98253.50
2023-03-14T04:34:30.229Z,98257.81
2023-03-14T04:36:56.687Z,98255.97
2023-03-14T04:39:23.099Z,98267.28
2023-03-14T04:41:49.472Z,98243.53
2023-03-14T04:44:15.877Z,98246.06
2023-03-14T04:46:42.295Z,98236.28
2023-03-14T04:49:08.691Z,98240.38
2023-03-14T04:51:35.086Z,98237.34
2023-03-14T04:54:01.503Z,98246.16
2023-03-14T04:56:28.616Z,98237.75
2023-03-14T04:58:55.036Z,98255.31
2023-03-14T05:01:21.437Z,98249.41
2023-03-14T05:03:47.867Z,98249.66
2023-03-14T05:06:14.261Z,98251.47
2023-03-14T05:08:40.679Z,98245.63
2023-03-14T05:11:07.196Z,98247.41
2023-03-14T05:13:33.612Z,98265.84
2023-03-14T05:16:10.750Z,98261.38
2023-03-14T05:18:37.412Z,98257.44
2023-03-14T05:21:04.632Z,98255.19
2023-03-14T05:23:31.544Z,98249.88
2023-03-14T05:25:57.934Z,98247.34
2023-03-14T05:28:24.309Z,98241.09
2023-03-14T05:30:50.690Z,98244.72
2023-03-14T05:33:17.098Z,98237.84
2023-03-14T05:35:44.048Z,98237.03
2023-03-14T05:38:10.454Z,98229.25
2023-03-14T05:40:36.874Z,98241.03
2023-03-14T05:43:03.268Z,98233.13
2023-03-14T05:45:29.897Z,98240.78
2023-03-14T05:47:56.359Z,98229.75
2023-03-14T05:50:22.733Z,98231.06
2023-03-14T05:52:49.175Z,98240.06
2023-03-14T05:55:15.546Z,98235.63
2023-03-14T05:57:41.939Z,98227.91
2023-03-14T06:00:09.023Z,98217.72
2023-03-14T06:02:35.476Z,98229.66
2023-03-14T06:05:01.894Z,98231.53
2023-03-14T06:07:28.320Z,98224.09
2023-03-14T06:09:54.692Z,98224.72
2023-03-14T06:12:21.084Z,98229.25
2023-03-14T06:14:47.494Z,98231.25
2023-03-14T06:17:13.872Z,98231.66
2023-03-14T06:19:40.251Z,98238.66
2023-03-14T06:22:06.637Z,98227.47
2023-03-14T06:24:33.049Z,98231.25
2023-03-14T06:27:03.561Z,98227.84
2023-03-14T06:29:30.456Z,98220.09
2023-03-14T06:31:56.834Z,98229.41
2023-03-14T06:34:23.247Z,98218.97
2023-03-14T06:36:49.654Z,98223.63
2023-03-14T06:39:16.032Z,98218.47
2023-03-14T06:41:42.399Z,98210.81
2023-03-14T06:44:08.856Z,98215.22
2023-03-14T06:46:35.276Z,98228.97
2023-03-14T06:49:01.677Z,98225.94
2023-03-14T06:51:28.072Z,98233.97
2023-03-14T06:53:54.467Z,98235.81
2023-03-14T06:56:20.843Z,98237.53
2023-03-14T06:58:50.269Z,98227.75
2023-03-14T07:01:28.298Z,98235.19
2023-03-14T07:03:54.763Z,98237.13
2023-03-14T07:06:21.178Z,98238.38
2023-03-14T07:08:47.606Z,98239.19
2023-03-14T07:11:14.243Z,98230.94
2023-03-14T07:13:40.996Z,98224.28
2023-03-14T07:16:07.900Z,98240.47
2023-03-14T07:18:34.390Z,98229.38
2023-03-14T07:21:00.773Z,98228.03
2023-03-14T07:23:27.207Z,98229.56
2023-03-14T07:25:54.593Z,98226.91
2023-03-14T07:28:21.161Z,98233.31
2023-03-14T07:30:48.475Z,98227.59
2023-03-14T07:33:14.923Z,98232.06
2023-03-14T07:35:41.359Z,98225.50
2023-03-14T07:38:07.862Z,98233.19
2023-03-14T07:40:34.243Z,98238.41
2023-03-14T07:43:00.625Z,98226.41
2023-03-14T07:45:28.350Z,98226.28
2023-03-14T07:47:58.240Z,98239.84
2023-03-14T07:50:25.893Z,98229.59
2023-03-14T07:52:52.296Z,98235.72
2023-03-14T07:55:18.898Z,98239.84
2023-03-14T07:57:45.298Z,98225.00
2023-03-14T08:00:14.232Z,98227.22
2023-03-14T08:02:42.096Z,98227.63
2023-03-14T08:05:08.861Z,98229.00
2023-03-14T08:07:35.420Z,98221.88
2023-03-14T08:10:02.061Z,98223.75
2023-03-14T08:12:28.436Z,98228.09
2023-03-14T08:14:54.815Z,98231.50
2023-03-14T08:17:21.192Z,98235.63
2023-03-14T08:19:48.105Z,98239.06
2023-03-14T08:22:14.491Z,98232.38
2023-03-14T08:24:41.994Z,98240.75
2023-03-14T08:27:10.978Z,98246.97
2023-03-14T08:29:37.601Z,98239.34
2023-03-14T08:32:04.177Z,98246.56
2023-03-14T08:34:30.596Z,98241.41
2023-03-14T08:36:57.744Z,98237.75
2023-03-14T08:39:24.283Z,98252.34
2023-03-14T08:41:50.973Z,98248.84
2023-03-14T08:44:20.109Z,98247.94
2023-03-14T08:46:47.210Z,98260.19
2023-03-14T08:49:15.386Z,98257.25
2023-03-14T08:51:41.809Z,98259.84
2023-03-14T08:54:11.577Z,98268.00
2023-03-14T08:56:39.037Z,98268.75
2023-03-14T08:59:06.113Z,98280.75
2023-03-14T09:01:32.775Z,98284.28
2023-03-14T09:03:59.217Z,98288.13
2023-03-14T09:06:25.630Z,98282.03
2023-03-14T09:08:52.019Z,98281.66
2023-03-14T09:11:19.626Z,98276.16
2023-03-14T09:13:46.018Z,98273.19
2023-03-14T09:16:12.553Z,98259.59
2023-03-14T09:18:38.938Z,98270.69
2023-03-14T09:21:05.554Z,98256.31
2023-03-14T09:23:32.083Z,98265.91
2023-03-14T09:25:59.300Z,98249.97
2023-03-14T09:28:26.049Z,98257.38
2023-03-14T09:30:52.456Z,98259.97
2023-03-14T09:33:19.659Z,98266.25
2023-03-14T09:35:46.081Z,98270.09
2023-03-14T09:38:12.692Z,98276.09
2023-03-14T09:40:41.865Z,98276.03
2023-03-14T09:43:12.798Z,98293.19
2023-03-14T09:45:41.421Z,98304.06
2023-03-14T09:48:15.501Z,98311.50
2023-03-14T09:50:45.249Z,98385.47
2023-03-14T09:53:18.187Z,98397.34
2023-03-14T09:55:46.426Z,98403.50
2023-03-14T09:58:14.762Z,98412.50
2023-03-14T10:00:41.266Z,98428.63
2023-03-14T10:03:30.554Z,98442.63
2023-03-14T10:05:57.549Z,98440.13
2023-03-14T10:08:24.021Z,98462.34
2023-03-14T10:10:50.584Z,98460.84
2023-03-14T10:13:26.876Z,98476.03
2023-03-14T10:16:06.673Z,98482.50
2023-03-14T10:18:35.414Z,98490.75
2023-03-14T10:21:07.783Z,98510.66
2023-03-14T10:23:34.915Z,98528.44
2023-03-14T10:26:14.488Z,98536.97
2023-03-14T10:28:47.024Z,98563.00
2023-03-14T10:31:14.141Z,98574.09
2023-03-14T10:33:40.651Z,98585.25
2023-03-14T10:36:20.477Z,98581.63
2023-03-14T10:38:46.900Z,98593.22
2023-03-14T10:41:34.517Z,98596.28
2023-03-14T10:44:02.479Z,98610.59
2023-03-14T10:46:31.744Z,98612.34
2023-03-14T10:48:58.160Z,98632.44
2023-03-14T10:51:29.865Z,98647.03
2023-03-14T10:54:20.689Z,98655.72
2023-03-14T10:56:57.705Z,98685.94
2023-03-14T10:59:24.086Z,98704.25
2023-03-14T11:02:00.100Z,98705.84
2023-03-14T11:04:48.966Z,98717.06
2023-03-14T11:07:39.859Z,98738.88
2023-03-14T11:10:15.187Z,98762.97
2023-03-14T11:13:07.625Z,98784.97
2023-03-14T11:15:44.131Z,98820.47
2023-03-14T11:18:32.537Z,98810.75
2023-03-14T11:21:13.867Z,98824.53
2023-03-14T11:23:53.618Z,98852.72
2023-03-14T11:26:29.087Z,98868.41
2023-03-14T11:29:02.960Z,98865.66
2023-03-14T11:31:31.046Z,98874.16
2023-03-14T11:34:03.891Z,98889.38
2023-03-14T11:36:41.043Z,98897.69
2023-03-14T11:39:14.775Z,98918.81
2023-03-14T11:41:42.856Z,98928.38
2023-03-14T11:44:48.447Z,98934.16
2023-03-14T11:47:30.896Z,98939.88
2023-03-14T11:50:04.936Z,98950.97
2023-03-14T11:52:32.462Z,98957.88
2023-03-14T11:55:17.699Z,98965.47
2023-03-14T11:57:45.406Z,98980.69
2023-03-14T12:00:20.672Z,98989.78
2023-03-14T12:03:15.246Z,98994.41
2023-03-14T12:06:19.252Z,99012.41
2023-03-14T12:08:51.544Z,99009.84
2023-03-14T12:11:36.689Z,99007.38
2023-03-14T12:14:03.523Z,99013.03
2023-03-14T12:16:35.738Z,99021.16
2023-03-14T12:19:25.716Z,99029.63
2023-03-14T12:21:56.181Z,99031.97
2023-03-14T12:24:33.448Z,99034.31
2023-03-14T12:27:02.170Z,99049.59
2023-03-14T12:29:29.121Z,99043.19
2023-03-14T12:32:01.710Z,99057.41
2023-03-14T12:34:31.205Z,99060.84
2023-03-14T12:37:05.574Z,99063.09
2023-03-14T12:39:48.991Z,99076.31
2023-03-14T12:42:45.184Z,99072.00
2023-03-14T12:45:24.342Z,99085.44
2023-03-14T12:47:57.750Z,99092.41
2023-03-14T12:50:33.198Z,99097.59
2023-03-14T12:53:14.868Z,99110.97
2023-03-14T12:55:48.101Z,99117.03
2023-03-14T12:58:33.470Z,99130.16
2023-03-14T13:01:05.141Z,99148.41
2023-03-14T13:03:46.331Z,99171.94
2023-03-14T13:06:52.235Z,99198.59
2023-03-14T13:09:32.387Z,99218.22
2023-03-14T13:12:28.797Z,99212.53
2023-03-14T13:14:55.280Z,99207.81
2023-03-14T13:17:34.416Z,99221.91
2023-03-14T13:20:06.547Z,99228.13
2023-03-14T13:22:35.360Z,99242.25
2023-03-14T13:25:05.726Z,99231.47
2023-03-14T13:27:35.146Z,99232.69
2023-03-14T13:30:21.225Z,99241.00
2023-03-14T13:32:49.152Z,99244.56
2023-03-14T13:35:24.279Z,99251.19
2023-03-14T13:38:17.857Z,99263.66
2023-03-14T13:40:45.615Z,99274.13
2023-03-14T13:43:25.900Z,99274.91
2023-03-14T13:46:17.750Z,99269.66
2023-03-14T13:48:49.878Z,99277.75
2023-03-14T13:51:19.097Z,99283.63
2023-03-14T13:53:50.711Z,99292.00
2023-03-14T13:56:19.233Z,99293.47
2023-03-14T13:58:45.993Z,99303.16
2023-03-14T14:01:18.221Z,99316.00
2023-03-14T14:03:46.758Z,99310.38
2023-03-14T14:06:30.228Z,99308.69
2023-03-14T14:08:58.079Z,99318.94
2023-03-14T14:11:47.095Z,99310.75
2023-03-14T14:14:36.837Z,99329.75
2023-03-14T14:17:06.882Z,99333.88
2023-03-14T14:19:35.693Z,99343.94
2023-03-14T14:22:02.903Z,99343.34
2023-03-14T14:24:32.180Z,99338.28
2023-03-14T14:27:19.008Z,99361.84
2023-03-14T14:29:46.581Z,99366.25
2023-03-14T14:32:15.457Z,99368.03
2023-03-14T14:35:01.035Z,99378.16
2023-03-14T14:37:33.407Z,99373.59
2023-03-14T14:40:02.673Z,99389.16
2023-03-14T14:42:31.578Z,99395.03
2023-03-14T14:44:59.503Z,99403.56
2023-03-14T14:47:27.928Z,99408.84
2023-03-14T14:49:55.764Z,99429.34
2023-03-14T14:52:44.302Z,99423.63
2023-03-14T14:55:18.301Z,99434.38
2023-03-14T14:57:55.299Z,99448.44
2023-03-14T15:00:26.668Z,99454.28
2023-03-14T15:02:55.921Z,99459.53
2023-03-14T15:05:24.414Z,99460.44
2023-03-14T15:07:51.118Z,99474.13
2023-03-14T15:10:20.295Z,99487.22
2023-03-14T15:12:48.218Z,99485.13
2023-03-14T15:15:15.094Z,99492.84
2023-03-14T15:17:41.519Z,99494.00
2023-03-14T15:20:16.450Z,99498.19
2023-03-14T15:22:43.052Z,99499.31
2023-03-14T15:25:18.746Z,99503.31
2023-03-14T15:27:53.577Z,99504.09
2023-03-14T15:30:20.019Z,99504.06
2023-03-14T15:32:46.457Z,99507.34
2023-03-14T15:35:17.699Z,99518.66
2023-03-14T15:37:44.848Z,99522.91
2023-03-14T15:40:15.441Z,99519.66
2023-03-14T15:42:42.150Z,99542.75
2023-03-14T15:45:09.106Z,99538.16
2023-03-14T15:47:35.800Z,99557.84
2023-03-14T15:50:02.392Z,99557.09
2023-03-14T15:52:28.861Z,99572.84
2023-03-14T15:54:55.235Z,99570.81
2023-03-14T15:57:21.621Z,99581.78
2023-03-14T15:59:48.171Z,99589.31
2023-03-14T16:02:14.554Z,99595.22
2023-03-14T16:04:40.978Z,99608.00
2023-03-14T16:07:07.448Z,99621.59
2023-03-14T16:09:33.884Z,99620.16
2023-03-14T16:12:00.409Z,99617.69
2023-03-14T16:14:26.806Z,99627.63
2023-03-14T16:16:54.197Z,99632.34
2023-03-14T16:19:20.642Z,99641.03
2023-03-14T16:21:47.041Z,99646.38
2023-03-14T16:24:13.444Z,99663.41
2023-03-14T16:26:39.823Z,99682.88
2023-03-14T16:29:06.252Z,99686.09
2023-03-14T16:31:33.531Z,99685.56
2023-03-14T16:34:03.764Z,99701.66
2023-03-14T16:36:30.137Z,99712.59
2023-03-14T16:38:56.538Z,99717.03
2023-03-14T16:41:23.197Z,99722.84
2023-03-14T16:43:52.170Z,99732.06
2023-03-14T16:46:19.843Z,99731.81
2023-03-14T16:48:46.512Z,99750.88
2023-03-14T16:51:14.133Z,99762.09
2023-03-14T16:53:40.569Z,99769.75
2023-03-14T16:56:07.484Z,99773.31
2023-03-14T16:58:33.867Z,99785.50
2023-03-14T17:01:09.759Z,99781.22
2023-03-14T17:03:47.314Z,99795.38
2023-03-14T17:06:16.470Z,99812.13
2023-03-14T17:08:42.858Z,99809.94
2023-03-14T17:11:09.513Z,99813.47
2023-03-14T17:13:36.538Z,99831.44
2023-03-14T17:16:03.485Z,99838.25
2023-03-14T17:18:31.403Z,99837.34
2023-03-14T17:20:58.567Z,99843.72
2023-03-14T17:23:27.174Z,99853.44
2023-03-14T17:25:53.569Z,99859.97
2023-03-14T17:28:22.021Z,99864.41
2023-03-14T17:30:49.020Z,99875.84
2023-03-14T17:33:15.726Z,99874.88
2023-03-14T17:35:45.232Z,99881.69
2023-03-14T17:38:11.741Z,99873.88
2023-03-14T17:40:38.319Z,99884.75
2023-03-14T17:43:04.679Z,99891.53
2023-03-14T17:45:31.086Z,99899.75
2023-03-14T17:47:57.468Z,99905.34
2023-03-14T17:50:23.939Z,99916.03
2023-03-14T17:52:50.302Z,99921.75
2023-03-14T17:55:16.690Z,99925.78
2023-03-14T17:57:44.806Z,99936.22
2023-03-14T18:00:11.870Z,99940.59
2023-03-14T18:02:40.235Z,99951.66
2023-03-14T18:05:09.010Z,99958.09
2023-03-14T18:07:35.968Z,99962.31
2023-03-14T18:10:02.939Z,99966.31
2023-03-14T18:12:29.329Z,99976.19
2023-03-14T18:14:55.708Z,99975.16
2023-03-14T18:17:22.100Z,99983.34
2023-03-14T18:19:48.507Z,99986.31
2023-03-14T18:22:15.958Z,99992.09
2023-03-14T18:24:42.415Z,99986.69
2023-03-14T18:27:08.836Z,99998.75
2023-03-14T18:29:36.652Z,100000.28
2023-03-14T18:32:03.045Z,100004.66
2023-03-14T18:34:29.530Z,100011.56
2023-03-14T18:36:55.913Z,100016.00
2023-03-14T18:39:22.314Z,100018.84
2023-03-14T18:41:48.696Z,100022.19
2023-03-14T18:44:15.313Z,100027.84
2023-03-14T18:46:42.420Z,100038.09
2023-03-14T18:49:10.438Z,100038.69
2023-03-14T18:51:36.856Z,100046.25
2023-03-14T18:54:09.524Z,100045.25
2023-03-14T18:56:37.973Z,100050.09
2023-03-14T18:59:04.369Z,100054.22
2023-03-14T19:01:31.483Z,100059.84
2023-03-14T19:04:02.642Z,100071.53
2023-03-14T19:06:31.842Z,100069.34
2023-03-14T19:08:58.278Z,100071.41
2023-03-14T19:11:26.610Z,100078.78
2023-03-14T19:13:54.287Z,100074.66
2023-03-14T19:16:24.717Z,100077.03
2023-03-14T19:18:52.236Z,100081.22
2023-03-14T19:21:29.178Z,100085.47
2023-03-14T19:23:55.922Z,100090.03
2023-03-14T19:26:22.718Z,100098.84
2023-03-14T19:28:49.164Z,100099.34
2023-03-14T19:31:15.696Z,100110.41
2023-03-14T19:33:42.497Z,100104.47
2023-03-14T19:36:31.565Z,100113.16
2023-03-14T19:38:59.835Z,100124.31
2023-03-14T19:41:26.456Z,100129.59
2023-03-14T19:43:53.488Z,100132.84
2023-03-14T19:46:20.106Z,100139.94
2023-03-14T19:48:47.334Z,100142.06
2023-03-14T19:51:14.230Z,100148.72
2023-03-14T19:53:41.861Z,100146.31
2023-03-14T19:56:09.569Z,100154.22
2023-03-14T19:58:38.030Z,100156.31
2023-03-14T20:01:04.615Z,100152.28
2023-03-14T20:03:31.368Z,100157.84
2023-03-14T20:05:57.786Z,100171.47
2023-03-14T20:08:24.364Z,100169.94
2023-03-14T20:10:50.758Z,100171.75
2023-03-14T20:13:21.865Z,100178.31
2023-03-14T20:15:49.029Z,100181.78
2023-03-14T20:18:15.453Z,100183.25
2023-03-14T20:20:41.919Z,100183.28
2023-03-14T20:23:09.133Z,100197.81
2023-03-14T20:25:35.541Z,100193.53
2023-03-14T20:28:02.061Z,100195.53
2023-03-14T20:30:28.423Z,100199.84
2023-03-14T20:32:54.926Z,100195.28
2023-03-14T20:35:23.969Z,100205.19
2023-03-14T20:37:54.366Z,100205.25
2023-03-14T20:40:20.889Z,100209.22
2023-03-14T20:42:47.286Z,100213.97
2023-03-14T20:45:13.692Z,100214.28
2023-03-14T20:47:40.263Z,100218.13
2023-03-14T20:50:07.318Z,100221.59
2023-03-14T20:52:33.827Z,100227.53
2023-03-14T20:55:00.207Z,100230.47
2023-03-14T20:57:26.800Z,100231.41
2023-03-14T20:59:53.215Z,100239.53
2023-03-14T21:02:19.592Z,100237.38
2023-03-14T21:04:46.114Z,100232.34
2023-03-14T21:07:12.587Z,100229.75
2023-03-14T21:09:39.019Z,100234.41
2023-03-14T21:12:05.792Z,100234.06
2023-03-14T21:14:32.227Z,100239.06
2023-03-14T21:17:00.173Z,100242.59
2023-03-14T21:19:32.996Z,100242.03
2023-03-14T21:22:00.986Z,100241.00
2023-03-14T21:24:28.838Z,100237.69
2023-03-14T21:26:55.624Z,100239.47
2023-03-14T21:29:22.276Z,100241.94
2023-03-14T21:31:49.008Z,100245.72
2023-03-14T21:34:15.438Z,100246.69
2023-03-14T21:36:42.338Z,100249.22
2023-03-14T21:39:08.969Z,100238.19
2023-03-14T21:41:35.329Z,100240.88
2023-03-14T21:44:01.740Z,100239.25
2023-03-14T21:46:28.291Z,100252.03
2023-03-14T21:48:54.702Z,100254.00
2023-03-14T21:51:21.154Z,100251.75
2023-03-14T21:53:47.564Z,100252.19
2023-03-14T21:56:13.939Z,100264.38
2023-03-14T21:58:40.797Z,100272.06
2023-03-14T22:01:07.170Z,100275.13
2023-03-14T22:03:34.363Z,100278.28
2023-03-14T22:06:01.479Z,100284.00
2023-03-14T22:08:28.340Z,100285.34
2023-03-14T22:10:55.414Z,100280.84
2023-03-14T22:13:23.653Z,100277.66
2023-03-14T22:15:50.645Z,100279.94
2023-03-14T22:18:18.430Z,100278.88
2023-03-14T22:20:45.115Z,100281.44
2023-03-14T22:23:12.629Z,100291.34
2023-03-14T22:25:40.960Z,100290.59
2023-03-14T22:28:07.341Z,100288.34
2023-03-14T22:30:33.740Z,100289.72
2023-03-14T22:33:00.687Z,100290.13
2023-03-14T22:35:27.738Z,100292.00
2023-03-14T22:37:54.414Z,100292.00
2023-03-14T22:40:20.877Z,100286.72
2023-03-14T22:42:48.216Z,100289.56
2023-03-14T22:45:15.344Z,100293.63
2023-03-14T22:47:41.728Z,100294.47
2023-03-14T22:50:08.706Z,100306.06
2023-03-14T22:52:35.090Z,100313.09
2023-03-14T22:55:01.479Z,100299.91
2023-03-14T22:57:28.038Z,100302.97
2023-03-14T22:59:54.579Z,100310.81
2023-03-14T23:02:21.559Z,100310.00
2023-03-14T23:04:48.182Z,100304.41
2023-03-14T23:07:14.591Z,100305.78
2023-03-14T23:09:41.479Z,100317.91
2023-03-14T23:12:08.732Z,100311.31
2023-03-14T23:14:35.132Z,100335.66
2023-03-14T23:17:01.556Z,100322.72
2023-03-14T23:19:27.987Z,100323.16
2023-03-14T23:21:55.323Z,100330.72
2023-03-14T23:24:22.039Z,100336.81
2023-03-14T23:26:48.672Z,100333.78
2023-03-14T23:29:15.082Z,100341.19
2023-03-14T23:31:41.950Z,100332.34
2023-03-14T23:34:09.067Z,100335.97
2023-03-14T23:36:37.135Z,100336.13
2023-03-14T23:39:07.449Z,100338.53
2023-03-14T23:41:34.139Z,100337.19
2023-03-14T23:44:01.812Z,100339.47
2023-03-14T23:46:28.796Z,100352.41
2023-03-14T23:48:55.216Z,100367.28
2023-03-14T23:51:21.741Z,100363.09
2023-03-14T23:53:48.122Z,100383.88
2023-03-14T23:56:15.987Z,100398.81
2023-03-14T23:58:42.556Z,100404.06
